sensor_id;sensor_type;location;lat;lon;timestamp;pressure;altitude;pressure_sealevel;temperature;humidity
53858;BME280;39763;51.188;6.690;2023-01-29T00:00:52;102699.28;;;1.64;63.08
53858;BME280;39763;51.188;6.690;2023-01-29T00:02:23;102691.50;;;1.64;63.32
53858;BME280;39763;51.188;6.690;2023-01-29T00:03:55;102689.91;;;1.67;63.38
53858;BME280;39763;51.188;6.690;2023-01-29T00:05:27;102686.56;;;1.70;63.66
53858;BME280;39763;51.188;6.690;2023-01-29T00:06:59;102693.56;;;1.72;63.28
53858;BME280;39763;51.188;6.690;2023-01-29T00:08:33;102692.63;;;1.70;63.41
53858;BME280;39763;51.188;6.690;2023-01-29T00:10:05;102689.88;;;1.66;63.83
53858;BME280;39763;51.188;6.690;2023-01-29T00:11:36;102703.63;;;1.65;63.11
53858;BME280;39763;51.188;6.690;2023-01-29T00:13:08;102688.22;;;1.68;63.69
53858;BME280;39763;51.188;6.690;2023-01-29T00:14:39;102694.50;;;1.74;63.39
53858;BME280;39763;51.188;6.690;2023-01-29T00:16:11;102695.56;;;1.81;63.49
53858;BME280;39763;51.188;6.690;2023-01-29T00:17:42;102684.53;;;1.87;63.82
53858;BME280;39763;51.188;6.690;2023-01-29T00:19:15;102685.53;;;1.90;63.11
53858;BME280;39763;51.188;6.690;2023-01-29T00:20:47;102688.25;;;1.95;63.52
53858;BME280;39763;51.188;6.690;2023-01-29T00:22:19;102689.25;;;1.98;63.48
53858;BME280;39763;51.188;6.690;2023-01-29T00:23:52;102682.25;;;1.96;63.73
53858;BME280;39763;51.188;6.690;2023-01-29T00:25:25;102680.47;;;1.95;62.95
53858;BME280;39763;51.188;6.690;2023-01-29T00:26:56;102673.53;;;1.94;63.75
53858;BME280;39763;51.188;6.690;2023-01-29T00:28:29;102678.72;;;1.94;63.14
53858;BME280;39763;51.188;6.690;2023-01-29T00:30:01;102679.41;;;1.88;62.66
53858;BME280;39763;51.188;6.690;2023-01-29T00:31:49;102671.31;;;1.79;62.96
53858;BME280;39763;51.188;6.690;2023-01-29T00:33:21;102684.09;;;1.73;63.21
53858;BME280;39763;51.188;6.690;2023-01-29T00:34:53;102677.91;;;1.69;63.95
53858;BME280;39763;51.188;6.690;2023-01-29T00:36:24;102673.44;;;1.65;63.77
53858;BME280;39763;51.188;6.690;2023-01-29T00:37:56;102665.47;;;1.59;64.11
53858;BME280;39763;51.188;6.690;2023-01-29T00:39:29;102668.78;;;1.55;63.52
53858;BME280;39763;51.188;6.690;2023-01-29T00:41:18;102676.31;;;1.49;64.69
53858;BME280;39763;51.188;6.690;2023-01-29T00:43:09;102673.59;;;1.45;64.61
53858;BME280;39763;51.188;6.690;2023-01-29T00:44:59;102670.94;;;1.43;64.63
53858;BME280;39763;51.188;6.690;2023-01-29T00:46:30;102674.47;;;1.45;64.15
53858;BME280;39763;51.188;6.690;2023-01-29T00:48:02;102683.28;;;1.50;65.01
53858;BME280;39763;51.188;6.690;2023-01-29T00:49:33;102678.31;;;1.56;64.87
53858;BME280;39763;51.188;6.690;2023-01-29T00:51:05;102679.44;;;1.63;64.08
53858;BME280;39763;51.188;6.690;2023-01-29T00:52:36;102668.47;;;1.71;64.23
53858;BME280;39763;51.188;6.690;2023-01-29T00:54:08;102670.34;;;1.75;64.21
53858;BME280;39763;51.188;6.690;2023-01-29T00:55:41;102666.13;;;1.77;63.93
53858;BME280;39763;51.188;6.690;2023-01-29T00:57:14;102660.88;;;1.76;63.87
53858;BME280;39763;51.188;6.690;2023-01-29T00:58:46;102656.34;;;1.70;63.38
53858;BME280;39763;51.188;6.690;2023-01-29T01:00:18;102667.44;;;1.66;64.43
53858;BME280;39763;51.188;6.690;2023-01-29T01:01:49;102669.84;;;1.60;64.03
53858;BME280;39763;51.188;6.690;2023-01-29T01:03:40;102666.31;;;1.58;63.68
53858;BME280;39763;51.188;6.690;2023-01-29T01:05:13;102670.72;;;1.61;64.08
53858;BME280;39763;51.188;6.690;2023-01-29T01:06:48;102668.25;;;1.65;64.39
53858;BME280;39763;51.188;6.690;2023-01-29T01:08:20;102670.25;;;1.72;64.28
53858;BME280;39763;51.188;6.690;2023-01-29T01:10:12;102672.13;;;1.76;63.69
53858;BME280;39763;51.188;6.690;2023-01-29T01:11:54;102673.03;;;1.78;64.38
53858;BME280;39763;51.188;6.690;2023-01-29T01:13:25;102673.13;;;1.82;64.15
53858;BME280;39763;51.188;6.690;2023-01-29T01:14:58;102680.13;;;1.84;63.48
53858;BME280;39763;51.188;6.690;2023-01-29T01:16:29;102680.25;;;1.87;64.18
53858;BME280;39763;51.188;6.690;2023-01-29T01:18:01;102685.47;;;1.89;63.80
53858;BME280;39763;51.188;6.690;2023-01-29T01:19:33;102684.75;;;1.93;64.04
53858;BME280;39763;51.188;6.690;2023-01-29T01:21:05;102679.66;;;1.96;63.79
53858;BME280;39763;51.188;6.690;2023-01-29T01:22:36;102670.28;;;1.99;63.67
53858;BME280;39763;51.188;6.690;2023-01-29T01:24:08;102674.69;;;2.02;63.16
53858;BME280;39763;51.188;6.690;2023-01-29T01:25:40;102675.63;;;2.04;63.46
53858;BME280;39763;51.188;6.690;2023-01-29T01:27:13;102672.16;;;2.03;63.46
53858;BME280;39763;51.188;6.690;2023-01-29T01:28:44;102673.75;;;2.00;63.08
53858;BME280;39763;51.188;6.690;2023-01-29T01:30:16;102676.41;;;2.01;63.62
53858;BME280;39763;51.188;6.690;2023-01-29T01:31:48;102668.72;;;2.04;63.34
53858;BME280;39763;51.188;6.690;2023-01-29T01:33:20;102665.38;;;2.07;63.57
53858;BME280;39763;51.188;6.690;2023-01-29T01:34:52;102673.22;;;2.10;63.50
53858;BME280;39763;51.188;6.690;2023-01-29T01:36:24;102658.59;;;2.12;63.34
53858;BME280;39763;51.188;6.690;2023-01-29T01:37:55;102643.88;;;2.11;63.41
53858;BME280;39763;51.188;6.690;2023-01-29T01:39:27;102649.81;;;2.07;62.88
53858;BME280;39763;51.188;6.690;2023-01-29T01:40:58;102641.63;;;1.95;62.68
53858;BME280;39763;51.188;6.690;2023-01-29T01:42:31;102641.28;;;1.84;63.17
53858;BME280;39763;51.188;6.690;2023-01-29T01:44:03;102637.50;;;1.74;63.82
53858;BME280;39763;51.188;6.690;2023-01-29T01:45:35;102634.69;;;1.68;62.86
53858;BME280;39763;51.188;6.690;2023-01-29T01:47:07;102638.88;;;1.65;64.30
53858;BME280;39763;51.188;6.690;2023-01-29T01:48:38;102644.94;;;1.65;63.88
53858;BME280;39763;51.188;6.690;2023-01-29T01:50:11;102634.66;;;1.67;63.66
53858;BME280;39763;51.188;6.690;2023-01-29T01:51:46;102635.41;;;1.64;64.09
53858;BME280;39763;51.188;6.690;2023-01-29T01:53:19;102637.06;;;1.61;63.80
53858;BME280;39763;51.188;6.690;2023-01-29T01:54:52;102641.22;;;1.57;63.78
53858;BME280;39763;51.188;6.690;2023-01-29T01:56:25;102643.81;;;1.57;64.61
53858;BME280;39763;51.188;6.690;2023-01-29T01:58:00;102642.19;;;1.59;63.96
53858;BME280;39763;51.188;6.690;2023-01-29T01:59:33;102639.59;;;1.59;64.34
53858;BME280;39763;51.188;6.690;2023-01-29T02:01:06;102635.28;;;1.60;63.76
53858;BME280;39763;51.188;6.690;2023-01-29T02:02:38;102637.09;;;1.62;63.95
53858;BME280;39763;51.188;6.690;2023-01-29T02:04:29;102644.13;;;1.66;63.97
53858;BME280;39763;51.188;6.690;2023-01-29T02:06:19;102641.59;;;1.68;63.62
53858;BME280;39763;51.188;6.690;2023-01-29T02:08:09;102641.69;;;1.71;63.67
53858;BME280;39763;51.188;6.690;2023-01-29T02:10:00;102645.28;;;1.74;63.61
53858;BME280;39763;51.188;6.690;2023-01-29T02:11:34;102646.16;;;1.75;63.52
53858;BME280;39763;51.188;6.690;2023-01-29T02:13:07;102642.69;;;1.74;63.45
53858;BME280;39763;51.188;6.690;2023-01-29T02:14:40;102642.59;;;1.71;63.61
53858;BME280;39763;51.188;6.690;2023-01-29T02:16:12;102642.63;;;1.73;63.43
53858;BME280;39763;51.188;6.690;2023-01-29T02:17:44;102640.09;;;1.74;63.53
53858;BME280;39763;51.188;6.690;2023-01-29T02:19:23;102642.69;;;1.74;63.12
53858;BME280;39763;51.188;6.690;2023-01-29T02:21:04;102641.91;;;1.77;63.95
53858;BME280;39763;51.188;6.690;2023-01-29T02:22:45;102659.22;;;1.78;63.33
53858;BME280;39763;51.188;6.690;2023-01-29T02:24:33;102647.09;;;1.77;63.44
53858;BME280;39763;51.188;6.690;2023-01-29T02:26:14;102648.88;;;1.80;63.31
53858;BME280;39763;51.188;6.690;2023-01-29T02:28:13;102661.00;;;1.81;63.86
53858;BME280;39763;51.188;6.690;2023-01-29T02:29:49;102658.47;;;1.82;63.20
53858;BME280;39763;51.188;6.690;2023-01-29T02:31:26;102667.13;;;1.83;62.89
53858;BME280;39763;51.188;6.690;2023-01-29T02:32:59;102669.66;;;1.81;63.03
53858;BME280;39763;51.188;6.690;2023-01-29T02:34:39;102671.44;;;1.82;63.52
53858;BME280;39763;51.188;6.690;2023-01-29T02:36:33;102678.25;;;1.80;62.97
53858;BME280;39763;51.188;6.690;2023-01-29T02:38:08;102687.78;;;1.81;63.02
53858;BME280;39763;51.188;6.690;2023-01-29T02:39:43;102690.50;;;1.84;62.63
53858;BME280;39763;51.188;6.690;2023-01-29T02:41:22;102691.50;;;1.88;63.27
53858;BME280;39763;51.188;6.690;2023-01-29T02:42:58;102689.09;;;1.94;62.72
53858;BME280;39763;51.188;6.690;2023-01-29T02:44:36;102687.53;;;1.99;62.88
53858;BME280;39763;51.188;6.690;2023-01-29T02:46:10;102696.34;;;2.04;63.27
53858;BME280;39763;51.188;6.690;2023-01-29T02:47:45;102698.25;;;2.09;62.67
53858;BME280;39763;51.188;6.690;2023-01-29T02:49:20;102699.34;;;2.16;62.70
53858;BME280;39763;51.188;6.690;2023-01-29T02:50:56;102691.78;;;2.22;63.00
53858;BME280;39763;51.188;6.690;2023-01-29T02:52:31;102697.03;;;2.25;62.91
53858;BME280;39763;51.188;6.690;2023-01-29T02:54:07;102692.84;;;2.29;62.93
53858;BME280;39763;51.188;6.690;2023-01-29T02:55:44;102686.88;;;2.31;62.18
53858;BME280;39763;51.188;6.690;2023-01-29T02:57:18;102678.06;;;2.26;62.51
53858;BME280;39763;51.188;6.690;2023-01-29T02:58:52;102679.44;;;2.15;61.73
53858;BME280;39763;51.188;6.690;2023-01-29T03:00:27;102673.91;;;2.04;62.50
53858;BME280;39763;51.188;6.690;2023-01-29T03:02:01;102665.69;;;1.91;62.53
53858;BME280;39763;51.188;6.690;2023-01-29T03:03:35;102678.19;;;1.77;62.39
53858;BME280;39763;51.188;6.690;2023-01-29T03:05:10;102669.19;;;1.67;62.74
53858;BME280;39763;51.188;6.690;2023-01-29T03:06:44;102674.06;;;1.58;63.68
53858;BME280;39763;51.188;6.690;2023-01-29T03:08:20;102670.38;;;1.52;63.67
53858;BME280;39763;51.188;6.690;2023-01-29T03:09:53;102666.81;;;1.48;63.89
53858;BME280;39763;51.188;6.690;2023-01-29T03:11:26;102668.38;;;1.43;63.48
53858;BME280;39763;51.188;6.690;2023-01-29T03:13:01;102660.47;;;1.40;63.63
53858;BME280;39763;51.188;6.690;2023-01-29T03:14:36;102655.94;;;1.33;64.39
53858;BME280;39763;51.188;6.690;2023-01-29T03:16:30;102656.53;;;1.26;64.79
53858;BME280;39763;51.188;6.690;2023-01-29T03:18:05;102648.59;;;1.21;64.24
53858;BME280;39763;51.188;6.690;2023-01-29T03:19:39;102653.56;;;1.15;64.58
53858;BME280;39763;51.188;6.690;2023-01-29T03:21:22;102655.22;;;1.13;64.62
53858;BME280;39763;51.188;6.690;2023-01-29T03:23:15;102653.56;;;1.15;64.68
53858;BME280;39763;51.188;6.690;2023-01-29T03:24:57;102658.16;;;1.24;65.14
53858;BME280;39763;51.188;6.690;2023-01-29T03:26:50;102666.22;;;1.31;64.69
53858;BME280;39763;51.188;6.690;2023-01-29T03:28:46;102666.47;;;1.39;65.05
53858;BME280;39763;51.188;6.690;2023-01-29T03:30:40;102658.94;;;1.45;64.37
53858;BME280;39763;51.188;6.690;2023-01-29T03:32:41;102667.78;;;1.52;64.40
53858;BME280;39763;51.188;6.690;2023-01-29T03:34:15;102664.44;;;1.54;64.88
53858;BME280;39763;51.188;6.690;2023-01-29T03:35:55;102672.31;;;1.57;64.17
53858;BME280;39763;51.188;6.690;2023-01-29T03:37:32;102672.41;;;1.60;64.04
53858;BME280;39763;51.188;6.690;2023-01-29T03:39:08;102671.69;;;1.64;64.41
53858;BME280;39763;51.188;6.690;2023-01-29T03:40:43;102670.03;;;1.66;63.64
53858;BME280;39763;51.188;6.690;2023-01-29T03:42:20;102668.44;;;1.70;63.75
53858;BME280;39763;51.188;6.690;2023-01-29T03:43:55;102671.97;;;1.72;63.74
53858;BME280;39763;51.188;6.690;2023-01-29T03:45:33;102666.84;;;1.73;63.88
53858;BME280;39763;51.188;6.690;2023-01-29T03:47:08;102671.19;;;1.74;64.27
53858;BME280;39763;51.188;6.690;2023-01-29T03:48:48;102674.66;;;1.75;64.19
53858;BME280;39763;51.188;6.690;2023-01-29T03:50:27;102672.91;;;1.74;63.67
53858;BME280;39763;51.188;6.690;2023-01-29T03:52:03;102664.25;;;1.73;63.43
53858;BME280;39763;51.188;6.690;2023-01-29T03:53:40;102660.72;;;1.71;63.88
53858;BME280;39763;51.188;6.690;2023-01-29T03:55:16;102663.81;;;1.61;63.99
53858;BME280;39763;51.188;6.690;2023-01-29T03:56:52;102658.19;;;1.49;64.21
53858;BME280;39763;51.188;6.690;2023-01-29T03:58:28;102661.31;;;1.39;63.95
53858;BME280;39763;51.188;6.690;2023-01-29T04:00:05;102675.69;;;1.31;64.64
53858;BME280;39763;51.188;6.690;2023-01-29T04:01:58;102665.94;;;1.24;64.05
53858;BME280;39763;51.188;6.690;2023-01-29T04:03:32;102657.09;;;1.17;64.55
53858;BME280;39763;51.188;6.690;2023-01-29T04:05:10;102652.44;;;1.09;63.98
53858;BME280;39763;51.188;6.690;2023-01-29T04:06:54;102656.63;;;1.05;65.11
53858;BME280;39763;51.188;6.690;2023-01-29T04:08:29;102656.53;;;1.02;65.36
53858;BME280;39763;51.188;6.690;2023-01-29T04:10:04;102648.72;;;1.00;65.11
53858;BME280;39763;51.188;6.690;2023-01-29T04:11:40;102646.84;;;0.96;65.21
53858;BME280;39763;51.188;6.690;2023-01-29T04:13:13;102651.88;;;0.93;64.98
53858;BME280;39763;51.188;6.690;2023-01-29T04:14:48;102657.81;;;0.91;65.22
53858;BME280;39763;51.188;6.690;2023-01-29T04:16:22;102658.69;;;0.91;65.35
53858;BME280;39763;51.188;6.690;2023-01-29T04:18:13;102650.13;;;0.92;65.20
53858;BME280;39763;51.188;6.690;2023-01-29T04:20:05;102646.72;;;0.93;65.69
53858;BME280;39763;51.188;6.690;2023-01-29T04:21:38;102644.00;;;0.90;64.84
53858;BME280;39763;51.188;6.690;2023-01-29T04:23:18;102642.25;;;0.89;65.11
53858;BME280;39763;51.188;6.690;2023-01-29T04:24:52;102631.88;;;0.88;64.89
53858;BME280;39763;51.188;6.690;2023-01-29T04:26:27;102635.97;;;0.83;64.69
53858;BME280;39763;51.188;6.690;2023-01-29T04:28:05;102623.69;;;0.77;64.92
53858;BME280;39763;51.188;6.690;2023-01-29T04:29:42;102623.59;;;0.74;65.55
53858;BME280;39763;51.188;6.690;2023-01-29T04:31:18;102622.66;;;0.72;65.50
53858;BME280;39763;51.188;6.690;2023-01-29T04:32:56;102615.59;;;0.68;66.32
53858;BME280;39763;51.188;6.690;2023-01-29T04:34:31;102619.00;;;0.67;65.53
53858;BME280;39763;51.188;6.690;2023-01-29T04:36:13;102619.72;;;0.63;65.88
53858;BME280;39763;51.188;6.690;2023-01-29T04:37:51;102613.50;;;0.58;65.53
53858;BME280;39763;51.188;6.690;2023-01-29T04:39:29;102609.97;;;0.56;66.51
53858;BME280;39763;51.188;6.690;2023-01-29T04:41:02;102619.44;;;0.55;66.48
53858;BME280;39763;51.188;6.690;2023-01-29T04:42:36;102614.31;;;0.57;66.75
53858;BME280;39763;51.188;6.690;2023-01-29T04:44:14;102625.75;;;0.63;66.99
53858;BME280;39763;51.188;6.690;2023-01-29T04:45:49;102622.53;;;0.69;67.04
53858;BME280;39763;51.188;6.690;2023-01-29T04:47:24;102624.44;;;0.73;66.49
53858;BME280;39763;51.188;6.690;2023-01-29T04:49:01;102621.94;;;0.76;66.11
53858;BME280;39763;51.188;6.690;2023-01-29T04:50:36;102623.81;;;0.80;66.03
53858;BME280;39763;51.188;6.690;2023-01-29T04:52:11;102607.66;;;0.86;66.19
53858;BME280;39763;51.188;6.690;2023-01-29T04:53:47;102618.19;;;0.92;66.24
53858;BME280;39763;51.188;6.690;2023-01-29T04:55:23;102615.78;;;0.96;65.34
53858;BME280;39763;51.188;6.690;2023-01-29T04:56:56;102608.19;;;1.01;65.28
53858;BME280;39763;51.188;6.690;2023-01-29T04:58:32;102612.69;;;1.06;65.61
53858;BME280;39763;51.188;6.690;2023-01-29T05:00:06;102599.88;;;1.10;65.27
53858;BME280;39763;51.188;6.690;2023-01-29T05:01:40;102603.47;;;1.13;65.31
53858;BME280;39763;51.188;6.690;2023-01-29T05:03:13;102602.56;;;1.13;65.24
53858;BME280;39763;51.188;6.690;2023-01-29T05:04:45;102612.22;;;1.17;65.86
53858;BME280;39763;51.188;6.690;2023-01-29T05:06:18;102601.91;;;1.18;65.76
53858;BME280;39763;51.188;6.690;2023-01-29T05:07:51;102604.53;;;1.20;65.25
53858;BME280;39763;51.188;6.690;2023-01-29T05:09:24;102602.81;;;1.20;65.01
53858;BME280;39763;51.188;6.690;2023-01-29T05:10:56;102614.13;;;1.22;65.29
53858;BME280;39763;51.188;6.690;2023-01-29T05:12:29;102613.34;;;1.25;65.05
53858;BME280;39763;51.188;6.690;2023-01-29T05:14:01;102616.94;;;1.28;64.75
53858;BME280;39763;51.188;6.690;2023-01-29T05:15:34;102607.56;;;1.32;64.69
53858;BME280;39763;51.188;6.690;2023-01-29T05:17:08;102604.25;;;1.36;64.46
53858;BME280;39763;51.188;6.690;2023-01-29T05:18:40;102602.59;;;1.38;64.65
53858;BME280;39763;51.188;6.690;2023-01-29T05:20:12;102593.16;;;1.40;64.81
53858;BME280;39763;51.188;6.690;2023-01-29T05:21:45;102595.75;;;1.40;64.84
53858;BME280;39763;51.188;6.690;2023-01-29T05:23:18;102592.22;;;1.38;64.55
53858;BME280;39763;51.188;6.690;2023-01-29T05:24:52;102592.75;;;1.28;64.35
53858;BME280;39763;51.188;6.690;2023-01-29T05:26:23;102585.47;;;1.16;64.61
53858;BME280;39763;51.188;6.690;2023-01-29T05:28:14;102597.03;;;1.02;64.26
53858;BME280;39763;51.188;6.690;2023-01-29T05:29:48;102589.81;;;0.93;64.85
53858;BME280;39763;51.188;6.690;2023-01-29T05:31:20;102587.84;;;0.86;65.48
53858;BME280;39763;51.188;6.690;2023-01-29T05:32:51;102591.94;;;0.81;65.35
53858;BME280;39763;51.188;6.690;2023-01-29T05:34:23;102592.66;;;0.77;65.34
53858;BME280;39763;51.188;6.690;2023-01-29T05:35:55;102593.41;;;0.75;65.73
53858;BME280;39763;51.188;6.690;2023-01-29T05:37:28;102592.66;;;0.77;65.93
53858;BME280;39763;51.188;6.690;2023-01-29T05:39:00;102592.66;;;0.77;66.25
53858;BME280;39763;51.188;6.690;2023-01-29T05:40:32;102585.72;;;0.76;66.22
53858;BME280;39763;51.188;6.690;2023-01-29T05:42:04;102577.88;;;0.73;66.00
53858;BME280;39763;51.188;6.690;2023-01-29T05:43:35;102582.09;;;0.71;66.52
53858;BME280;39763;51.188;6.690;2023-01-29T05:45:07;102580.41;;;0.72;66.11
53858;BME280;39763;51.188;6.690;2023-01-29T05:46:39;102573.53;;;0.72;66.42
53858;BME280;39763;51.188;6.690;2023-01-29T05:48:11;102578.75;;;0.74;66.80
53858;BME280;39763;51.188;6.690;2023-01-29T05:49:42;102575.28;;;0.73;66.84
53858;BME280;39763;51.188;6.690;2023-01-29T05:51:14;102571.97;;;0.77;66.61
53858;BME280;39763;51.188;6.690;2023-01-29T05:52:45;102577.06;;;0.76;67.10
53858;BME280;39763;51.188;6.690;2023-01-29T05:54:17;102573.63;;;0.75;66.69
53858;BME280;39763;51.188;6.690;2023-01-29T05:55:49;102571.97;;;0.77;67.23
53858;BME280;39763;51.188;6.690;2023-01-29T05:57:21;102576.38;;;0.80;66.62
53858;BME280;39763;51.188;6.690;2023-01-29T05:58:53;102586.72;;;0.80;66.83
53858;BME280;39763;51.188;6.690;2023-01-29T06:00:24;102578.13;;;0.81;66.83
53858;BME280;39763;51.188;6.690;2023-01-29T06:01:56;102575.59;;;0.82;66.38
53858;BME280;39763;51.188;6.690;2023-01-29T06:03:28;102579.91;;;0.82;66.35
53858;BME280;39763;51.188;6.690;2023-01-29T06:04:59;102585.91;;;0.81;66.22
53858;BME280;39763;51.188;6.690;2023-01-29T06:06:31;102589.47;;;0.84;67.00
53858;BME280;39763;51.188;6.690;2023-01-29T06:08:03;102593.72;;;0.82;67.00
53858;BME280;39763;51.188;6.690;2023-01-29T06:09:34;102596.41;;;0.85;66.50
53858;BME280;39763;51.188;6.690;2023-01-29T06:11:07;102594.84;;;0.90;66.66
53858;BME280;39763;51.188;6.690;2023-01-29T06:12:39;102602.69;;;0.92;66.80
53858;BME280;39763;51.188;6.690;2023-01-29T06:14:11;102601.03;;;0.94;66.73
53858;BME280;39763;51.188;6.690;2023-01-29T06:15:42;102607.19;;;0.97;66.86
53858;BME280;39763;51.188;6.690;2023-01-29T06:17:14;102606.69;;;1.08;66.64
53858;BME280;39763;51.188;6.690;2023-01-29T06:18:45;102602.56;;;1.13;66.65
53858;BME280;39763;51.188;6.690;2023-01-29T06:20:17;102597.50;;;1.16;67.01
53858;BME280;39763;51.188;6.690;2023-01-29T06:21:49;102615.00;;;1.23;66.56
53858;BME280;39763;51.188;6.690;2023-01-29T06:23:20;102611.69;;;1.27;66.70
53858;BME280;39763;51.188;6.690;2023-01-29T06:24:52;102618.00;;;1.35;66.90
53858;BME280;39763;51.188;6.690;2023-01-29T06:26:25;102620.81;;;1.41;66.36
53858;BME280;39763;51.188;6.690;2023-01-29T06:27:56;102626.22;;;1.47;66.31
53858;BME280;39763;51.188;6.690;2023-01-29T06:29:29;102625.53;;;1.53;65.89
53858;BME280;39763;51.188;6.690;2023-01-29T06:31:01;102624.88;;;1.58;66.57
53858;BME280;39763;51.188;6.690;2023-01-29T06:32:54;102636.41;;;1.68;66.27
53858;BME280;39763;51.188;6.690;2023-01-29T06:34:25;102641.03;;;1.76;65.74
53858;BME280;39763;51.188;6.690;2023-01-29T06:35:57;102637.81;;;1.84;65.84
53858;BME280;39763;51.188;6.690;2023-01-29T06:37:29;102640.66;;;1.91;65.83
53858;BME280;39763;51.188;6.690;2023-01-29T06:39:00;102637.25;;;1.92;65.64
53858;BME280;39763;51.188;6.690;2023-01-29T06:40:32;102640.56;;;1.88;64.67
53858;BME280;39763;51.188;6.690;2023-01-29T06:42:05;102630.13;;;1.87;65.03
53858;BME280;39763;51.188;6.690;2023-01-29T06:43:36;102634.44;;;1.86;64.99
53858;BME280;39763;51.188;6.690;2023-01-29T06:45:08;102630.97;;;1.86;64.91
53858;BME280;39763;51.188;6.690;2023-01-29T06:46:40;102641.22;;;1.83;65.19
53858;BME280;39763;51.188;6.690;2023-01-29T06:48:11;102642.88;;;1.81;65.25
53858;BME280;39763;51.188;6.690;2023-01-29T06:49:43;102637.63;;;1.77;64.73
53858;BME280;39763;51.188;6.690;2023-01-29T06:51:15;102640.09;;;1.74;65.13
53858;BME280;39763;51.188;6.690;2023-01-29T06:52:46;102633.09;;;1.72;65.66
53858;BME280;39763;51.188;6.690;2023-01-29T06:54:18;102628.59;;;1.66;65.69
53858;BME280;39763;51.188;6.690;2023-01-29T06:55:52;102630.25;;;1.64;65.15
53858;BME280;39763;51.188;6.690;2023-01-29T06:57:27;102617.00;;;1.55;65.22
53858;BME280;39763;51.188;6.690;2023-01-29T06:58:58;102624.66;;;1.52;65.47
53858;BME280;39763;51.188;6.690;2023-01-29T07:00:30;102609.00;;;1.49;65.46
53858;BME280;39763;51.188;6.690;2023-01-29T07:02:01;102608.88;;;1.45;65.88
53858;BME280;39763;51.188;6.690;2023-01-29T07:03:33;102611.34;;;1.41;66.41
53858;BME280;39763;51.188;6.690;2023-01-29T07:05:05;102604.34;;;1.39;66.21
53858;BME280;39763;51.188;6.690;2023-01-29T07:06:36;102602.69;;;1.41;66.71
53858;BME280;39763;51.188;6.690;2023-01-29T07:08:08;102607.06;;;1.42;65.89
53858;BME280;39763;51.188;6.690;2023-01-29T07:09:42;102612.28;;;1.44;66.66
53858;BME280;39763;51.188;6.690;2023-01-29T07:11:13;102611.47;;;1.45;66.47
53858;BME280;39763;51.188;6.690;2023-01-29T07:12:46;102622.69;;;1.45;66.00
53858;BME280;39763;51.188;6.690;2023-01-29T07:14:18;102613.88;;;1.40;66.56
53858;BME280;39763;51.188;6.690;2023-01-29T07:15:49;102610.25;;;1.35;66.41
53858;BME280;39763;51.188;6.690;2023-01-29T07:17:21;102615.41;;;1.35;66.01
53858;BME280;39763;51.188;6.690;2023-01-29T07:18:52;102612.81;;;1.33;66.08
53858;BME280;39763;51.188;6.690;2023-01-29T07:20:25;102630.94;;;1.35;67.06
53858;BME280;39763;51.188;6.690;2023-01-29T07:21:56;102623.34;;;1.39;66.79
53858;BME280;39763;51.188;6.690;2023-01-29T07:23:28;102612.88;;;1.36;65.98
53858;BME280;39763;51.188;6.690;2023-01-29T07:24:59;102624.88;;;1.34;67.00
53858;BME280;39763;51.188;6.690;2023-01-29T07:26:31;102621.41;;;1.32;67.07
53858;BME280;39763;51.188;6.690;2023-01-29T07:28:04;102622.34;;;1.36;66.81
53858;BME280;39763;51.188;6.690;2023-01-29T07:29:35;102624.34;;;1.43;66.86
53858;BME280;39763;51.188;6.690;2023-01-29T07:31:07;102619.41;;;1.51;66.50
53858;BME280;39763;51.188;6.690;2023-01-29T07:32:41;102623.66;;;1.49;66.72
53858;BME280;39763;51.188;6.690;2023-01-29T07:34:13;102622.88;;;1.51;66.57
53858;BME280;39763;51.188;6.690;2023-01-29T07:35:44;102624.53;;;1.49;66.29
53858;BME280;39763;51.188;6.690;2023-01-29T07:37:16;102618.66;;;1.53;66.62
53858;BME280;39763;51.188;6.690;2023-01-29T07:38:48;102623.09;;;1.57;66.42
53858;BME280;39763;51.188;6.690;2023-01-29T07:40:20;102614.63;;;1.61;66.32
53858;BME280;39763;51.188;6.690;2023-01-29T07:41:52;102621.41;;;1.58;66.38
53858;BME280;39763;51.188;6.690;2023-01-29T07:43:27;102616.28;;;1.59;66.53
53858;BME280;39763;51.188;6.690;2023-01-29T07:44:59;102612.03;;;1.61;66.33
53858;BME280;39763;51.188;6.690;2023-01-29T07:46:30;102607.75;;;1.63;65.69
53858;BME280;39763;51.188;6.690;2023-01-29T07:48:02;102602.56;;;1.63;66.46
53858;BME280;39763;51.188;6.690;2023-01-29T07:49:35;102599.09;;;1.61;66.33
53858;BME280;39763;51.188;6.690;2023-01-29T07:51:06;102600.97;;;1.67;66.35
53858;BME280;39763;51.188;6.690;2023-01-29T07:52:38;102604.78;;;1.76;66.74
53858;BME280;39763;51.188;6.690;2023-01-29T07:54:10;102606.94;;;1.90;66.44
53858;BME280;39763;51.188;6.690;2023-01-29T07:55:42;102621.00;;;1.98;66.24
53858;BME280;39763;51.188;6.690;2023-01-29T07:57:14;102614.38;;;2.06;66.15
53858;BME280;39763;51.188;6.690;2023-01-29T07:58:47;102616.31;;;2.13;66.35
53858;BME280;39763;51.188;6.690;2023-01-29T08:00:19;102607.06;;;2.21;65.35
53858;BME280;39763;51.188;6.690;2023-01-29T08:01:51;102597.84;;;2.31;65.66
53858;BME280;39763;51.188;6.690;2023-01-29T08:03:23;102593.59;;;2.33;65.16
53858;BME280;39763;51.188;6.690;2023-01-29T08:04:54;102582.34;;;2.32;64.61
53858;BME280;39763;51.188;6.690;2023-01-29T08:06:26;102587.56;;;2.34;65.23
53858;BME280;39763;51.188;6.690;2023-01-29T08:07:57;102590.16;;;2.34;64.55
53858;BME280;39763;51.188;6.690;2023-01-29T08:09:37;102597.81;;;2.29;64.29
53858;BME280;39763;51.188;6.690;2023-01-29T08:11:08;102596.91;;;2.29;64.65
53858;BME280;39763;51.188;6.690;2023-01-29T08:12:40;102594.31;;;2.29;64.71
53858;BME280;39763;51.188;6.690;2023-01-29T08:14:13;102593.44;;;2.28;64.66
53858;BME280;39763;51.188;6.690;2023-01-29T08:15:44;102585.56;;;2.25;65.30
53858;BME280;39763;51.188;6.690;2023-01-29T08:17:16;102589.88;;;2.25;65.15
53858;BME280;39763;51.188;6.690;2023-01-29T08:18:47;102592.47;;;2.25;65.03
53858;BME280;39763;51.188;6.690;2023-01-29T08:20:19;102595.00;;;2.22;65.11
53858;BME280;39763;51.188;6.690;2023-01-29T08:21:51;102600.94;;;2.19;64.74